Time;durP1;ratioP1;P1;durP2;ratioP2;P2;SDS_P1;SDS_P2;PMS_P1;PMS_P2;Temp;Humidity;BMP_temperature;BMP_pressure;BME280_temperature;BME280_humidity;BME280_pressure;Samples;Min_cycle;Max_cycle;Signal;HPM_P1;HPM_P2
2023/06/05 00:00:09;;;;;;;;;;;;;;;15.77;100.00;95684.00;5137298;27;1197;-52
2023/06/05 00:02:35;;;;;;;;;;;;;;;15.59;100.00;95678.88;5137005;27;1103;-52
2023/06/05 00:05:02;;;;;;;;;;;;;;;15.48;100.00;95683.84;5137165;27;1036;-52
2023/06/05 00:07:28;;;;;;;;;;;;;;;15.55;100.00;95682.94;5137012;27;1284;-52
2023/06/05 00:09:54;;;;;;;;;;;;;;;15.60;100.00;95691.34;5137195;27;1059;-52
2023/06/05 00:12:20;;;;;;;;;;;;;;;15.58;100.00;95684.47;5137237;27;1025;-52
2023/06/05 00:14:46;;;;;;;;;;;;;;;15.55;100.00;95682.09;5136987;27;1909;-52
2023/06/05 00:17:13;;;;;;;;;;;;;;;15.59;100.00;95678.03;5137199;27;961;-52
2023/06/05 00:19:39;;;;;;;;;;;;;;;15.59;100.00;95678.03;5136295;27;962;-52
2023/06/05 00:22:05;;;;;;;;;;;;;;;15.65;100.00;95680.03;5136797;27;1207;-52
2023/06/05 00:24:31;;;;;;;;;;;;;;;15.79;100.00;95676.56;5137080;27;1032;-52
2023/06/05 00:26:57;;;;;;;;;;;;;;;15.92;100.00;95675.97;5137045;27;964;-53
2023/06/05 00:29:23;;;;;;;;;;;;;;;15.94;100.00;95678.47;5136862;27;1032;-52
2023/06/05 00:31:49;;;;;;;;;;;;;;;16.02;100.00;95680.28;5136850;27;1040;-52
2023/06/05 00:34:15;;;;;;;;;;;;;;;15.97;100.00;95683.50;5136618;27;1914;-52
2023/06/05 00:36:41;;;;;;;;;;;;;;;15.94;100.00;95675.78;5136446;27;1060;-52
2023/06/05 00:39:08;;;;;;;;;;;;;;;15.90;100.00;95669.09;5136911;27;1203;-52
2023/06/05 00:41:35;;;;;;;;;;;;;;;15.78;100.00;95669.50;5136832;27;1065;-52
2023/06/05 00:44:01;;;;;;;;;;;;;;;15.72;100.00;95672.03;5136389;27;925;-52
2023/06/05 00:46:27;;;;;;;;;;;;;;;15.80;100.00;95666.63;5136532;27;1302;-52
2023/06/05 00:48:53;;;;;;;;;;;;;;;15.88;100.00;95668.41;5136212;27;1883;-52
2023/06/05 00:51:20;;;;;;;;;;;;;;;15.83;100.00;95660.03;5136249;27;957;-52
2023/06/05 00:53:47;;;;;;;;;;;;;;;15.72;100.00;95664.78;5135471;27;2930;-52
2023/06/05 00:56:13;;;;;;;;;;;;;;;15.78;100.00;95649.78;5118558;27;2824;-52
2023/06/05 00:58:39;;;;;;;;;;;;;;;15.95;100.00;95650.47;5115527;28;1033;-52
2023/06/05 01:01:06;;;;;;;;;;;;;;;15.93;100.00;95650.66;5115530;28;1044;-52
2023/06/05 01:03:35;;;;;;;;;;;;;;;15.87;100.00;95647.88;5115460;28;1084;-52
2023/06/05 01:06:04;;;;;;;;;;;;;;;15.75;100.00;95650.16;5115678;28;997;-52
2023/06/05 01:08:38;;;;;;;;;;;;;;;15.69;100.00;95656.22;5126392;27;1612;-52
2023/06/05 01:11:18;;;;;;;;;;;;;;;15.75;100.00;95660.94;5131227;27;2495;-52
2023/06/05 01:13:51;;;;;;;;;;;;;;;15.92;100.00;95659.78;5115291;28;957;-53
2023/06/05 01:16:18;;;;;;;;;;;;;;;15.97;100.00;95667.31;5115082;28;1905;-52
2023/06/05 01:18:45;;;;;;;;;;;;;;;16.04;100.00;95659.34;5115389;28;957;-53
2023/06/05 01:21:15;;;;;;;;;;;;;;;16.07;100.00;95659.81;5115334;28;1056;-52
2023/06/05 01:23:44;;;;;;;;;;;;;;;16.11;100.00;95658.44;5115340;28;1015;-52
2023/06/05 01:26:17;;;;;;;;;;;;;;;16.16;100.00;95653.34;5114960;28;1896;-52
2023/06/05 01:28:46;;;;;;;;;;;;;;;16.04;100.00;95646.69;5115240;28;1036;-52
2023/06/05 01:31:15;;;;;;;;;;;;;;;15.98;100.00;95644.72;5114345;28;1044;-52
2023/06/05 01:33:49;;;;;;;;;;;;;;;15.98;100.00;95647.44;5115113;28;1049;-53
2023/06/05 01:36:15;;;;;;;;;;;;;;;16.09;100.00;95644.28;5114772;28;1976;-52
2023/06/05 01:38:43;;;;;;;;;;;;;;;16.11;100.00;95644.13;5114859;28;964;-53
2023/06/05 01:41:10;;;;;;;;;;;;;;;16.10;100.00;95647.81;5115002;28;961;-52
2023/06/05 01:43:37;;;;;;;;;;;;;;;16.10;100.00;95640.56;5114997;28;1059;-52
2023/06/05 01:46:06;;;;;;;;;;;;;;;16.12;100.00;95640.38;5115421;27;1978;-53
2023/06/05 01:48:32;;;;;;;;;;;;;;;16.11;100.00;95633.31;5135163;27;1100;-53
2023/06/05 01:50:59;;;;;;;;;;;;;;;16.05;100.00;95637.59;5135170;27;1063;-53
2023/06/05 01:53:25;;;;;;;;;;;;;;;16.04;100.00;95641.28;5135215;27;1069;-52
2023/06/05 01:55:53;;;;;;;;;;;;;;;16.06;100.00;95627.63;5134806;27;1906;-53
2023/06/05 01:58:21;;;;;;;;;;;;;;;16.12;100.00;95641.22;5135006;27;1001;-52
2023/06/05 02:00:47;;;;;;;;;;;;;;;16.06;100.00;95638.41;5134773;27;1151;-53
2023/06/05 02:03:15;;;;;;;;;;;;;;;16.07;100.00;95637.38;5134897;27;1226;-52
2023/06/05 02:05:42;;;;;;;;;;;;;;;16.07;100.00;95629.28;5134789;27;1095;-52
2023/06/05 02:08:10;;;;;;;;;;;;;;;16.11;100.00;95633.31;5135036;27;1657;-52
2023/06/05 02:10:37;;;;;;;;;;;;;;;16.16;100.00;95638.97;5134911;27;973;-52
2023/06/05 02:13:03;;;;;;;;;;;;;;;16.11;100.00;95627.94;5134983;27;1021;-53
2023/06/05 02:15:32;;;;;;;;;;;;;;;15.93;100.00;95629.09;5134604;27;1905;-52
2023/06/05 02:17:58;;;;;;;;;;;;;;;15.96;100.00;95630.59;5134583;27;1005;-52
2023/06/05 02:20:24;;;;;;;;;;;;;;;15.95;100.00;95628.91;5134837;27;992;-52
2023/06/05 02:22:51;;;;;;;;;;;;;;;16.04;100.00;95629.69;5134631;27;980;-52
2023/06/05 02:25:18;;;;;;;;;;;;;;;16.12;100.00;95635.81;5134433;27;1079;-52
2023/06/05 02:27:44;;;;;;;;;;;;;;;16.13;100.00;95637.50;5134736;27;984;-52
2023/06/05 02:30:11;;;;;;;;;;;;;;;16.06;100.00;95639.25;5134768;27;968;-52
2023/06/05 02:32:41;;;;;;;;;;;;;;;16.09;100.00;95638.91;5134462;27;1517;-52
2023/06/05 02:35:07;;;;;;;;;;;;;;;16.09;100.00;95641.59;5134586;27;1906;-52
2023/06/05 02:37:37;;;;;;;;;;;;;;;16.20;100.00;95646.53;5134380;27;1015;-52
2023/06/05 02:40:07;;;;;;;;;;;;;;;16.16;100.00;95642.53;5134426;27;1004;-52
2023/06/05 02:42:37;;;;;;;;;;;;;;;16.15;100.00;95637.31;5134414;27;985;-52
2023/06/05 02:45:03;;;;;;;;;;;;;;;16.19;100.00;95644.84;5134488;27;1067;-52
2023/06/05 02:47:30;;;;;;;;;;;;;;;16.20;100.00;95640.28;5134327;28;1250;-52
2023/06/05 02:49:56;;;;;;;;;;;;;;;16.19;100.00;95644.84;5134295;28;976;-52
2023/06/05 02:52:22;;;;;;;;;;;;;;;16.18;100.00;95632.41;5134252;28;1057;-52
2023/06/05 02:54:48;;;;;;;;;;;;;;;16.25;100.00;95637.06;5134327;28;1909;-52
2023/06/05 02:57:15;;;;;;;;;;;;;;;16.22;100.00;95640.09;5134509;28;977;-53
2023/06/05 02:59:41;;;;;;;;;;;;;;;16.17;100.00;95644.19;5134098;28;1083;-53
2023/06/05 03:02:07;;;;;;;;;;;;;;;16.05;100.00;95648.38;5133890;28;1096;-53
2023/06/05 03:04:33;;;;;;;;;;;;;;;16.03;100.00;95650.44;5134498;28;1035;-53
2023/06/05 03:07:03;;;;;;;;;;;;;;;16.03;100.00;95647.72;5134060;28;1528;-53
2023/06/05 03:09:30;;;;;;;;;;;;;;;16.05;100.00;95648.38;5133941;28;1519;-53
2023/06/05 03:11:57;;;;;;;;;;;;;;;16.06;100.00;95655.44;5134279;28;1019;-52
2023/06/05 03:14:23;;;;;;;;;;;;;;;16.11;100.00;95655.72;5134236;28;1905;-52
2023/06/05 03:16:49;;;;;;;;;;;;;;;16.07;100.00;95657.13;5134167;28;969;-52
2023/06/05 03:19:15;;;;;;;;;;;;;;;16.07;100.00;95648.19;5134127;28;1044;-52
2023/06/05 03:21:42;;;;;;;;;;;;;;;16.06;100.00;95658.13;5133740;28;1585;-52
2023/06/05 03:24:10;;;;;;;;;;;;;;;15.97;100.00;95648.44;5133831;28;1119;-52
2023/06/05 03:26:36;;;;;;;;;;;;;;;15.94;100.00;95659.59;5133840;28;1085;-52
2023/06/05 03:29:02;;;;;;;;;;;;;;;15.96;100.00;95652.16;5133871;28;1115;-52
2023/06/05 03:31:28;;;;;;;;;;;;;;;16.05;100.00;95650.22;5134208;28;980;-52
2023/06/05 03:33:54;;;;;;;;;;;;;;;16.06;100.00;95660.84;5133787;28;1897;-52
2023/06/05 03:36:21;;;;;;;;;;;;;;;16.10;100.00;95658.59;5133746;28;1991;-52
2023/06/05 03:38:47;;;;;;;;;;;;;;;16.05;100.00;95652.91;5133886;28;1040;-53
2023/06/05 03:41:13;;;;;;;;;;;;;;;15.90;100.00;95651.03;5126676;28;2534;-52
2023/06/05 03:43:39;;;;;;;;;;;;;;;15.91;100.00;95647.31;5113500;28;1008;-52
2023/06/05 03:46:05;;;;;;;;;;;;;;;15.95;100.00;95654.03;5114465;28;1291;-52
2023/06/05 03:48:31;;;;;;;;;;;;;;;15.95;100.00;95653.19;5131774;28;2863;-52
2023/06/05 03:50:57;;;;;;;;;;;;;;;16.00;100.00;95657.00;5133862;28;1044;-52
2023/06/05 03:53:23;;;;;;;;;;;;;;;16.17;100.00;95662.25;5124260;28;2558;-52
2023/06/05 03:55:52;;;;;;;;;;;;;;;16.25;100.00;95664.03;5115762;28;1909;-52
2023/06/05 03:58:19;;;;;;;;;;;;;;;16.20;100.00;95656.47;5116898;28;1059;-53
2023/06/05 04:00:46;;;;;;;;;;;;;;;16.23;100.00;95663.38;5116923;28;1144;-52
2023/06/05 04:07:10;;;;;;;;;;;;;;;16.11;100.00;95653.03;5135290;27;1210;-52
2023/06/05 04:09:36;;;;;;;;;;;;;;;16.07;100.00;95653.56;5135925;27;2078;-52
2023/06/05 04:12:03;;;;;;;;;;;;;;;16.16;100.00;95655.16;5116249;27;2863;-52
2023/06/05 04:14:29;;;;;;;;;;;;;;;16.24;100.00;95662.34;5116214;28;1926;-52
2023/06/05 04:16:55;;;;;;;;;;;;;;;16.22;100.00;95664.38;5116615;28;965;-52
2023/06/05 04:19:21;;;;;;;;;;;;;;;16.30;100.00;95661.63;5116346;28;1037;-52
2023/06/05 04:21:47;;;;;;;;;;;;;;;16.22;100.00;95661.69;5116655;28;1075;-52
2023/06/05 04:24:13;;;;;;;;;;;;;;;16.26;100.00;95666.56;5116262;28;991;-52
2023/06/05 04:26:41;;;;;;;;;;;;;;;16.22;100.00;95661.69;5116197;28;1025;-52
2023/06/05 04:29:13;;;;;;;;;;;;;;;16.30;100.00;95667.03;5116430;28;1254;-52
2023/06/05 04:31:42;;;;;;;;;;;;;;;16.32;100.00;95664.97;5116425;28;1291;-53
2023/06/05 04:34:08;;;;;;;;;;;;;;;16.35;100.00;95661.91;5116273;28;1032;-53
2023/06/05 04:36:35;;;;;;;;;;;;;;;16.34;100.00;95665.63;5116325;28;1292;-53
2023/06/05 04:39:01;;;;;;;;;;;;;;;16.34;100.00;95661.06;5115966;28;1047;-53
2023/06/05 04:41:29;;;;;;;;;;;;;;;16.31;100.00;95657.91;5116199;28;981;-53
2023/06/05 04:43:57;;;;;;;;;;;;;;;16.42;100.00;95657.44;5115880;28;1112;-53
2023/06/05 04:46:23;;;;;;;;;;;;;;;16.51;100.00;95656.34;5119477;27;1243;-53
2023/06/05 04:48:50;;;;;;;;;;;;;;;16.63;100.00;95661.28;5136642;27;996;-52
2023/06/05 04:51:16;;;;;;;;;;;;;;;16.77;100.00;95658.56;5136175;27;1036;-52
2023/06/05 04:53:42;;;;;;;;;;;;;;;16.79;100.00;95653.00;5135491;27;2887;-53
2023/06/05 04:56:09;;;;;;;;;;;;;;;16.68;100.00;95658.84;5135658;27;2848;-52
2023/06/05 04:58:35;;;;;;;;;;;;;;;16.52;100.00;95654.47;5136374;27;1016;-52
2023/06/05 05:01:06;;;;;;;;;;;;;;;16.39;100.00;95655.13;5136286;27;1055;-52
2023/06/05 05:03:32;;;;;;;;;;;;;;;16.31;100.00;95647.94;5136059;27;2127;-52
2023/06/05 05:06:00;;;;;;;;;;;;;;;16.45;100.00;95654.38;5135991;27;1127;-52
2023/06/05 05:08:27;;;;;;;;;;;;;;;16.48;100.00;95659.38;5135776;27;1553;-52
2023/06/05 05:10:53;;;;;;;;;;;;;;;16.45;100.00;95659.78;5135819;27;1223;-53
2023/06/05 05:13:19;;;;;;;;;;;;;;;16.51;100.00;95650.94;5135997;27;1051;-52
2023/06/05 05:15:46;;;;;;;;;;;;;;;16.53;100.00;95654.28;5135758;27;1982;-52
2023/06/05 05:18:12;;;;;;;;;;;;;;;16.51;100.00;95653.63;5135667;27;984;-52
2023/06/05 05:20:39;;;;;;;;;;;;;;;16.56;100.00;95656.63;5135945;27;964;-52
2023/06/05 05:23:07;;;;;;;;;;;;;;;16.61;100.00;95655.22;5135440;27;1029;-52
2023/06/05 05:25:33;;;;;;;;;;;;;;;16.73;100.00;95651.88;5135665;27;966;-52
2023/06/05 05:28:00;;;;;;;;;;;;;;;16.77;100.00;95647.78;5135605;27;1916;-52
2023/06/05 05:30:25;;;;;;;;;;;;;;;16.82;100.00;95651.75;5135747;27;1309;-52
2023/06/05 05:32:52;;;;;;;;;;;;;;;16.81;100.00;95661.75;5135788;27;1051;-52
2023/06/05 05:35:18;;;;;;;;;;;;;;;16.90;100.00;95649.84;5135438;27;1902;-52
2023/06/05 05:37:44;;;;;;;;;;;;;;;16.92;100.00;95650.50;5135360;27;1027;-52
2023/06/05 05:40:11;;;;;;;;;;;;;;;17.14;100.00;95647.84;5135183;27;1269;-52
2023/06/05 05:42:37;;;;;;;;;;;;;;;17.10;100.00;95641.13;5135254;27;1037;-53
2023/06/05 05:45:03;;;;;;;;;;;;;;;17.04;100.00;95648.13;5135579;27;981;-53
2023/06/05 05:47:29;;;;;;;;;;;;;;;17.01;100.00;95647.69;5135036;27;1302;-53
2023/06/05 05:49:55;;;;;;;;;;;;;;;17.11;100.00;95648.19;5135180;27;981;-53
2023/06/05 05:52:22;;;;;;;;;;;;;;;17.14;100.00;95637.03;5134977;27;1064;-52
2023/06/05 05:54:48;;;;;;;;;;;;;;;17.08;100.00;95643.19;5135199;27;1914;-52
2023/06/05 05:57:14;;;;;;;;;;;;;;;17.28;100.00;95644.28;5135266;27;1192;-53
2023/06/05 05:59:42;;;;;;;;;;;;;;;17.45;100.00;95650.25;5135018;27;1123;-53
2023/06/05 06:02:09;;;;;;;;;;;;;;;17.41;100.00;95648.97;5135066;27;973;-53
2023/06/05 06:04:35;;;;;;;;;;;;;;;17.45;100.00;95646.72;5134868;27;1040;-52
2023/06/05 06:07:02;;;;;;;;;;;;;;;17.52;100.00;95644.94;5134741;27;1229;-52
2023/06/05 06:09:29;;;;;;;;;;;;;;;17.55;100.00;95649.97;5134533;27;1591;-53
2023/06/05 06:11:55;;;;;;;;;;;;;;;17.60;100.00;95647.50;5135049;27;1026;-52
2023/06/05 06:14:22;;;;;;;;;;;;;;;17.69;100.00;95653.63;5134601;27;1978;-52
2023/06/05 06:16:49;;;;;;;;;;;;;;;17.74;100.00;95657.41;5134734;27;968;-52
2023/06/05 06:19:16;;;;;;;;;;;;;;;17.70;100.00;95658.84;5134225;27;1087;-52
2023/06/05 06:21:42;;;;;;;;;;;;;;;17.57;100.00;95658.72;5134622;27;1024;-52
2023/06/05 06:24:09;;;;;;;;;;;;;;;17.54;100.00;95664.50;5134547;27;1116;-53
2023/06/05 06:26:38;;;;;;;;;;;;;;;17.56;100.00;95662.44;5134523;27;1053;-53
2023/06/05 06:29:05;;;;;;;;;;;;;;;17.52;100.00;95661.16;5134751;27;1048;-53
2023/06/05 06:31:31;;;;;;;;;;;;;;;17.64;100.00;95666.88;5134462;27;949;-53
2023/06/05 06:33:59;;;;;;;;;;;;;;;17.67;100.00;95664.63;5134328;27;2068;-53
2023/06/05 06:36:26;;;;;;;;;;;;;;;17.89;100.00;95661.94;5134468;27;1913;-53
2023/06/05 06:38:52;;;;;;;;;;;;;;;17.99;100.00;95672.47;5134223;27;1079;-52
2023/06/05 06:41:19;;;;;;;;;;;;;;;17.97;100.00;95669.94;5134493;27;1248;-52
2023/06/05 06:43:45;;;;;;;;;;;;;;;18.02;100.00;95674.75;5134427;27;1040;-52
2023/06/05 06:46:11;;;;;;;;;;;;;;;18.12;100.00;95672.56;5130611;27;3051;-52
2023/06/05 06:48:37;;;;;;;;;;;;;;;18.38;100.00;95677.34;5134155;27;1107;-53
2023/06/05 06:51:03;;;;;;;;;;;;;;;18.47;100.00;95678.84;5134458;28;1036;-52
2023/06/05 06:53:29;;;;;;;;;;;;;;;18.81;99.05;95685.38;5134462;28;1008;-52
2023/06/05 06:55:55;;;;;;;;;;;;;;;19.11;95.88;95683.22;5134330;28;1909;-52
2023/06/05 06:58:22;;;;;;;;;;;;;;;19.22;99.16;95691.84;5134049;28;1032;-52
2023/06/05 07:00:49;;;;;;;;;;;;;;;19.00;98.71;95685.69;5134389;28;1039;-52
2023/06/05 07:03:15;;;;;;;;;;;;;;;19.05;99.26;95683.22;5133963;28;1076;-52
2023/06/05 07:05:41;;;;;;;;;;;;;;;19.42;97.93;95678.34;5134179;28;1083;-53
2023/06/05 07:08:07;;;;;;;;;;;;;;;19.43;98.74;95674.63;5133898;28;1299;-53
2023/06/05 07:10:33;;;;;;;;;;;;;;;19.47;99.07;95679.41;5134288;28;1013;-53
2023/06/05 07:13:00;;;;;;;;;;;;;;;19.40;97.45;95678.56;5134294;28;1080;-52
2023/06/05 07:15:26;;;;;;;;;;;;;;;19.45;98.50;95675.25;5133844;28;1909;-52
2023/06/05 07:17:52;;;;;;;;;;;;;;;19.59;97.61;95679.66;5134077;28;999;-52
2023/06/05 07:20:18;;;;;;;;;;;;;;;19.54;95.49;95681.31;5133964;28;1012;-53
2023/06/05 07:22:46;;;;;;;;;;;;;;;19.56;96.99;95682.78;5134114;28;1005;-52
2023/06/05 07:25:15;;;;;;;;;;;;;;;19.42;95.73;95679.19;5133852;28;1020;-52
2023/06/05 07:27:43;;;;;;;;;;;;;;;19.38;97.97;95674.38;5134184;28;960;-52
2023/06/05 07:30:10;;;;;;;;;;;;;;;19.70;95.18;95679.06;5135640;27;1021;-53
2023/06/05 07:32:36;;;;;;;;;;;;;;;20.21;96.82;95676.88;5137800;27;1213;-53
2023/06/05 07:35:02;;;;;;;;;;;;;;;20.23;93.82;95689.19;5137945;27;1918;-53
2023/06/05 07:37:28;;;;;;;;;;;;;;;20.16;92.79;95682.91;5137866;27;1040;-52
2023/06/05 07:39:54;;;;;;;;;;;;;;;20.17;94.44;95684.59;5138043;27;1032;-52
2023/06/05 07:42:20;;;;;;;;;;;;;;;20.39;92.95;95684.38;5137687;27;1048;-53
2023/06/05 07:44:46;;;;;;;;;;;;;;;20.62;94.40;95678.53;5137672;27;1020;-52
2023/06/05 07:47:12;;;;;;;;;;;;;;;20.61;91.89;95679.59;5137574;27;1223;-52
2023/06/05 07:49:38;;;;;;;;;;;;;;;20.89;89.25;95681.19;5137490;27;1905;-52
2023/06/05 07:52:04;;;;;;;;;;;;;;;20.84;90.83;95679.13;5137668;27;985;-52
2023/06/05 07:54:30;;;;;;;;;;;;;;;20.97;87.98;95680.97;5137164;27;1910;-52
2023/06/05 07:56:57;;;;;;;;;;;;;;;20.95;90.91;95683.91;5137666;27;981;-52
2023/06/05 07:59:27;;;;;;;;;;;;;;;20.76;88.70;95688.34;5137181;27;1063;-52
2023/06/05 08:01:55;;;;;;;;;;;;;;;20.56;91.13;95682.88;5137456;27;1063;-52
2023/06/05 08:04:24;;;;;;;;;;;;;;;20.66;89.61;95680.63;5137439;27;957;-51
2023/06/05 08:06:51;;;;;;;;;;;;;;;20.91;92.66;95685.38;5136544;27;1091;-51
2023/06/05 08:09:17;;;;;;;;;;;;;;;20.88;89.25;95687.69;5135752;27;1295;-52
2023/06/05 08:11:43;;;;;;;;;;;;;;;20.79;88.39;95679.78;5136738;27;1064;-52
2023/06/05 08:14:09;;;;;;;;;;;;;;;20.81;91.08;95685.84;5136074;27;996;-52
2023/06/05 08:16:35;;;;;;;;;;;;;;;21.05;89.33;95681.56;5137032;27;1967;-52
2023/06/05 08:19:02;;;;;;;;;;;;;;;21.55;85.80;95681.00;5137164;27;1053;-52
2023/06/05 08:21:28;;;;;;;;;;;;;;;21.76;84.79;95681.72;5136830;27;1060;-52
2023/06/05 08:23:54;;;;;;;;;;;;;;;21.92;86.73;95678.47;5137077;27;984;-52
2023/06/05 08:26:20;;;;;;;;;;;;;;;22.09;85.44;95676.06;5136704;27;1052;-52
2023/06/05 08:28:46;;;;;;;;;;;;;;;22.29;83.34;95681.41;5136895;27;1196;-52
2023/06/05 08:31:12;;;;;;;;;;;;;;;22.60;82.77;95685.94;5136387;27;1028;-52
2023/06/05 08:33:38;;;;;;;;;;;;;;;22.88;78.33;95683.78;5135518;27;972;-51
2023/06/05 08:36:05;;;;;;;;;;;;;;;22.89;78.26;95682.75;5126173;27;2487;-52
2023/06/05 08:38:31;;;;;;;;;;;;;;;23.26;78.61;95669.13;5118039;27;2489;-51
2023/06/05 08:41:02;;;;;;;;;;;;;;;23.28;79.13;95677.97;5121565;27;2923;-51
2023/06/05 08:43:28;;;;;;;;;;;;;;;23.16;77.51;95662.34;5115872;28;1039;-51
2023/06/05 08:45:55;;;;;;;;;;;;;;;23.33;77.07;95670.72;5115734;28;1887;-51
2023/06/05 08:48:22;;;;;;;;;;;;;;;23.53;79.03;95662.28;5136234;27;1318;-51
2023/06/05 08:50:48;;;;;;;;;;;;;;;23.78;75.27;95664.91;5136474;27;1055;-51
2023/06/05 08:53:16;;;;;;;;;;;;;;;23.97;74.78;95667.59;5136173;27;969;-51
2023/06/05 08:55:44;;;;;;;;;;;;;;;24.04;73.55;95662.06;5135834;27;1996;-51
2023/06/05 08:58:12;;;;;;;;;;;;;;;24.17;70.51;95650.94;5136057;27;1876;-51
2023/06/05 09:00:38;;;;;;;;;;;;;;;23.88;72.18;95652.59;5136013;27;1033;-51
2023/06/05 09:03:05;;;;;;;;;;;;;;;23.54;77.12;95655.78;5136212;27;1036;-51
2023/06/05 09:05:32;;;;;;;;;;;;;;;23.25;78.34;95659.31;5135754;27;1241;-52
2023/06/05 09:07:58;;;;;;;;;;;;;;;23.25;76.66;95660.13;5135713;27;1893;-51
2023/06/05 09:10:26;;;;;;;;;;;;;;;23.43;76.32;95661.16;5135858;27;1000;-52
2023/06/05 09:12:56;;;;;;;;;;;;;;;24.07;77.89;95672.50;5136012;27;1055;-52
2023/06/05 09:15:29;;;;;;;;;;;;;;;24.19;74.54;95662.44;5135610;27;1988;-52
2023/06/05 09:18:05;;;;;;;;;;;;;;;23.71;75.70;95655.13;5136024;27;1052;-52
2023/06/05 09:20:34;;;;;;;;;;;;;;;23.17;75.68;95655.81;5135188;27;2267;-52
2023/06/05 09:23:01;;;;;;;;;;;;;;;23.07;76.67;95651.94;5114585;28;2901;-52
2023/06/05 09:25:43;;;;;;;;;;;;;;;22.77;76.30;95652.69;5115112;28;969;-52
2023/06/05 09:28:09;;;;;;;;;;;;;;;22.55;79.33;95646.81;5114905;28;1041;-52
2023/06/05 09:30:52;;;;;;;;;;;;;;;22.60;79.86;95636.06;5115198;28;1058;-52
2023/06/05 09:33:19;;;;;;;;;;;;;;;23.05;79.94;95644.00;5115083;28;1040;-52
2023/06/05 09:35:45;;;;;;;;;;;;;;;23.65;73.24;95645.16;5124478;27;2612;-52
2023/06/05 09:38:25;;;;;;;;;;;;;;;23.79;75.10;95643.94;5135439;27;1035;-52
2023/06/05 09:40:51;;;;;;;;;;;;;;;23.96;76.35;95644.94;5135508;27;969;-52
2023/06/05 09:43:21;;;;;;;;;;;;;;;23.83;77.69;95645.13;5135349;27;1032;-52
2023/06/05 09:45:46;;;;;;;;;;;;;;;23.44;76.00;95641.84;5135300;27;965;-52
2023/06/05 09:48:13;;;;;;;;;;;;;;;23.25;79.16;95640.22;5135230;27;1289;-51
2023/06/05 09:50:40;;;;;;;;;;;;;;;23.46;78.54;95642.44;5134895;27;1097;-52
2023/06/05 09:53:08;;;;;;;;;;;;;;;23.53;78.15;95635.00;5134587;27;968;-52
2023/06/05 09:55:35;;;;;;;;;;;;;;;23.57;76.37;95633.47;5134892;27;1988;-52
2023/06/05 09:58:02;;;;;;;;;;;;;;;23.15;76.67;95638.84;5134967;27;1036;-52
2023/06/05 10:00:28;;;;;;;;;;;;;;;23.31;77.13;95628.38;5135086;27;1028;-52
2023/06/05 10:02:55;;;;;;;;;;;;;;;23.08;75.80;95627.19;5135118;27;957;-52
2023/06/05 10:05:21;;;;;;;;;;;;;;;23.02;78.58;95628.06;5134471;27;1230;-52
2023/06/05 10:07:53;;;;;;;;;;;;;;;22.86;75.80;95620.47;5134704;27;1385;-52
2023/06/05 10:10:19;;;;;;;;;;;;;;;22.88;78.65;95623.81;5134876;27;1048;-52
2023/06/05 10:12:46;;;;;;;;;;;;;;;23.01;81.51;95620.94;5134748;27;1036;-52
2023/06/05 10:15:12;;;;;;;;;;;;;;;23.14;79.10;95615.34;5134600;27;1905;-52
2023/06/05 10:17:40;;;;;;;;;;;;;;;23.19;78.72;95610.03;5134907;27;956;-52
2023/06/05 10:20:07;;;;;;;;;;;;;;;23.08;78.37;95613.53;5134876;27;978;-52
2023/06/05 10:22:35;;;;;;;;;;;;;;;23.03;81.56;95616.16;5134760;27;974;-52
2023/06/05 10:25:04;;;;;;;;;;;;;;;23.05;81.41;95611.28;5134807;27;1063;-52
2023/06/05 10:27:35;;;;;;;;;;;;;;;22.85;79.87;95602.47;5134546;27;1035;-52
2023/06/05 10:30:01;;;;;;;;;;;;;;;23.02;82.64;95595.34;5134514;27;1064;-52
2023/06/05 10:32:31;;;;;;;;;;;;;;;23.19;80.32;95596.41;5134348;27;1166;-52
2023/06/05 10:35:01;;;;;;;;;;;;;;;23.39;81.38;95590.69;5134757;27;1918;-52
2023/06/05 10:37:27;;;;;;;;;;;;;;;23.69;83.09;95583.56;5134182;27;1076;-52
2023/06/05 10:39:54;;;;;;;;;;;;;;;23.71;81.33;95584.16;5134443;27;1075;-51
2023/06/05 10:42:26;;;;;;;;;;;;;;;23.52;82.30;95583.38;5134525;27;1043;-52
2023/06/05 10:44:53;;;;;;;;;;;;;;;23.41;83.19;95581.44;5134561;27;1070;-52
2023/06/05 10:47:31;;;;;;;;;;;;;;;23.53;83.50;95569.50;5134369;27;1269;-52
2023/06/05 10:50:27;;;;;;;;;;;;;;;23.73;82.04;95566.50;5134283;27;965;-52
2023/06/05 10:52:54;;;;;;;;;;;;;;;23.52;77.69;95575.19;5131927;28;2027;-52
2023/06/05 10:55:21;;;;;;;;;;;;;;;23.43;77.72;95573.84;5134259;28;1902;-52
2023/06/05 10:58:02;;;;;;;;;;;;;;;23.59;78.10;95576.75;5134382;28;993;-52
2023/06/05 11:00:29;;;;;;;;;;;;;;;23.64;74.08;95580.69;5134368;28;968;-52
2023/06/05 11:02:56;;;;;;;;;;;;;;;23.44;74.22;95565.44;5134051;28;936;-52
2023/06/05 11:05:22;;;;;;;;;;;;;;;23.65;77.03;95560.53;5137585;27;1095;-52
2023/06/05 11:08:08;;;;;;;;;;;;;;;23.45;78.75;95555.34;5138313;27;1641;-52
2023/06/05 11:10:34;;;;;;;;;;;;;;;23.48;78.25;95535.78;5138478;27;973;-52
2023/06/05 11:13:00;;;;;;;;;;;;;;;23.69;78.18;95548.06;5137873;27;2341;-52
2023/06/05 11:15:26;;;;;;;;;;;;;;;23.72;75.48;95551.16;5127544;27;2850;-52
2023/06/05 11:17:52;;;;;;;;;;;;;;;23.69;78.04;95551.63;5137161;27;2289;-52
2023/06/05 11:20:21;;;;;;;;;;;;;;;23.59;79.11;95554.94;5136965;27;2832;-52
2023/06/05 11:22:53;;;;;;;;;;;;;;;23.53;79.95;95555.88;5138051;27;1255;-52
2023/06/05 11:25:29;;;;;;;;;;;;;;;23.56;79.00;95555.41;5137874;27;1076;-51
2023/06/05 11:27:57;;;;;;;;;;;;;;;23.42;78.51;95561.28;5138179;27;1052;-52
2023/06/05 11:30:26;;;;;;;;;;;;;;;23.48;81.98;95565.81;5138186;27;961;-52
2023/06/05 11:32:57;;;;;;;;;;;;;;;23.60;80.79;95553.06;5137850;27;1012;-51
2023/06/05 11:35:29;;;;;;;;;;;;;;;23.67;79.43;95553.75;5137933;27;1906;-53
2023/06/05 11:38:11;;;;;;;;;;;;;;;23.54;81.27;95554.81;5137985;27;961;-52
2023/06/05 11:40:38;;;;;;;;;;;;;;;23.48;83.71;95546.72;5119502;27;910;-53
2023/06/05 11:43:05;;;;;;;;;;;;;;;23.42;81.27;95550.38;5137626;27;1102;-51
2023/06/05 11:45:36;;;;;;;;;;;;;;;23.42;80.69;95556.66;5137516;27;1003;-51
2023/06/05 11:48:12;;;;;;;;;;;;;;;23.50;80.38;95550.03;5137634;27;1239;-51
2023/06/05 11:50:40;;;;;;;;;;;;;;;23.58;79.85;95549.69;5137842;27;1020;-52
2023/06/05 11:53:06;;;;;;;;;;;;;;;23.52;80.57;95546.03;5137760;27;968;-51
2023/06/05 11:55:43;;;;;;;;;;;;;;;23.52;81.93;95540.56;5137422;27;1909;-51
2023/06/05 11:58:10;;;;;;;;;;;;;;;23.37;79.75;95542.88;5137324;27;1041;-52
2023/06/05 12:00:37;;;;;;;;;;;;;;;23.25;80.68;95533.81;5137444;27;957;-52
2023/06/05 12:03:03;;;;;;;;;;;;;;;23.11;81.49;95530.47;5137504;27;1041;-51
2023/06/05 12:05:29;;;;;;;;;;;;;;;23.34;81.51;95526.97;5137184;27;1096;-52
2023/06/05 12:07:56;;;;;;;;;;;;;;;23.48;78.73;95517.53;5137038;27;1620;-51
2023/06/05 12:10:32;;;;;;;;;;;;;;;23.64;79.04;95512.44;5137105;27;1031;-51
2023/06/05 12:12:58;;;;;;;;;;;;;;;23.74;79.39;95510.81;5136999;27;1041;-51
2023/06/05 12:15:26;;;;;;;;;;;;;;;23.75;79.84;95504.31;5136322;27;1906;-51
2023/06/05 12:17:52;;;;;;;;;;;;;;;23.71;80.71;95494.06;5136794;27;1108;-52
2023/06/05 12:20:19;;;;;;;;;;;;;;;23.88;77.03;95502.44;5137139;27;1070;-52
2023/06/05 12:22:45;;;;;;;;;;;;;;;24.04;78.27;95498.19;5137153;27;1040;-52
2023/06/05 12:25:16;;;;;;;;;;;;;;;24.09;80.08;95487.34;5136586;27;1113;-53
2023/06/05 12:27:42;;;;;;;;;;;;;;;24.16;79.31;95494.34;5136549;27;1084;-53
2023/06/05 12:30:09;;;;;;;;;;;;;;;24.19;82.29;95495.81;5137085;27;1056;-53
2023/06/05 12:32:35;;;;;;;;;;;;;;;24.22;80.76;95487.13;5136830;27;1044;-53
2023/06/05 12:35:01;;;;;;;;;;;;;;;24.19;80.16;95486.75;5136653;27;1990;-53
2023/06/05 12:37:29;;;;;;;;;;;;;;;24.21;80.50;95485.47;5136615;27;1032;-53
2023/06/05 12:39:56;;;;;;;;;;;;;;;24.24;80.73;95478.69;5136824;27;1056;-53
2023/06/05 12:42:22;;;;;;;;;;;;;;;24.34;83.86;95476.19;5136809;27;1048;-53
2023/06/05 12:44:48;;;;;;;;;;;;;;;24.27;78.20;95470.84;5136531;27;1061;-53
2023/06/05 12:47:14;;;;;;;;;;;;;;;24.14;81.09;95474.66;5136393;27;1277;-52
2023/06/05 12:49:40;;;;;;;;;;;;;;;24.12;82.26;95473.25;5136571;27;1029;-53
2023/06/05 12:52:08;;;;;;;;;;;;;;;24.14;84.17;95465.63;5136662;27;977;-52
2023/06/05 12:54:38;;;;;;;;;;;;;;;24.00;84.11;95459.59;5136191;27;1901;-53
2023/06/05 12:57:06;;;;;;;;;;;;;;;23.99;83.09;95457.09;5136275;27;1092;-53